createdAt,value
2022-11-04T00:02:03.913Z,0.30
2022-11-04T00:04:30.789Z,0.30
2022-11-04T00:06:58.081Z,0.20
2022-11-04T00:09:28.316Z,0.27
2022-11-04T00:12:13.809Z,0.35
2022-11-04T00:14:40.305Z,0.20
2022-11-04T00:17:20.049Z,0.30
2022-11-04T00:20:07.490Z,0.20
2022-11-04T00:22:52.977Z,0.20
2022-11-04T00:25:38.369Z,0.28
2022-11-04T00:28:29.344Z,0.20
2022-11-04T00:30:58.022Z,0.10
2022-11-04T00:33:25.929Z,0.20
2022-11-04T00:35:55.359Z,0.20
2022-11-04T00:38:23.161Z,0.30
2022-11-04T00:40:49.639Z,0.20
2022-11-04T00:43:16.164Z,0.20
2022-11-04T00:45:42.917Z,0.20
2022-11-04T00:48:10.316Z,0.30
2022-11-04T00:50:37.066Z,0.30
2022-11-04T00:53:04.479Z,0.38
2022-11-04T00:55:31.080Z,0.30
2022-11-04T00:57:58.654Z,0.50
2022-11-04T01:00:25.132Z,0.50
2022-11-04T01:02:51.653Z,0.30
2022-11-04T01:05:18.151Z,0.50
2022-11-04T01:07:44.612Z,0.60
2022-11-04T01:10:11.311Z,0.70
2022-11-04T01:12:37.826Z,0.40
2022-11-04T01:15:04.911Z,0.55
2022-11-04T01:17:31.435Z,0.50
2022-11-04T01:19:57.912Z,0.47
2022-11-04T01:22:24.417Z,0.47
2022-11-04T01:24:50.911Z,0.50
2022-11-04T01:27:17.392Z,0.40
2022-11-04T01:29:43.876Z,0.50
2022-11-04T01:32:10.404Z,0.63
2022-11-04T01:34:42.289Z,0.47
2022-11-04T01:37:10.545Z,0.53
2022-11-04T01:39:37.079Z,0.60
2022-11-04T01:44:48.826Z,0.50
2022-11-04T01:47:43.396Z,0.30
2022-11-04T01:50:15.835Z,0.37
2022-11-04T01:52:49.818Z,0.50
2022-11-04T01:55:21.961Z,0.20
2022-11-04T01:57:51.614Z,0.22
2022-11-04T02:00:19.104Z,0.20
2022-11-04T02:02:53.744Z,0.20
2022-11-04T02:05:21.716Z,0.20
2022-11-04T02:07:52.111Z,0.20
2022-11-04T02:10:21.392Z,0.20
2022-11-04T02:12:53.854Z,0.10
2022-11-04T02:15:35.126Z,0.20
2022-11-04T02:18:16.454Z,0.10
2022-11-04T02:20:59.238Z,0.20
2022-11-04T02:23:53.720Z,0.30
2022-11-04T02:26:38.473Z,0.10
2022-11-04T02:29:15.863Z,0.10
2022-11-04T02:31:49.206Z,0.10
2022-11-04T02:34:26.451Z,0.10
2022-11-04T02:37:05.443Z,0.10
2022-11-04T02:39:49.510Z,0.10
2022-11-04T02:42:32.392Z,0.10
2022-11-04T02:45:14.581Z,0.10
2022-11-04T02:47:45.600Z,0.20
2022-11-04T02:50:27.148Z,0.10
2022-11-04T02:52:58.864Z,0.10
2022-11-04T02:55:31.065Z,0.10
2022-11-04T02:58:01.938Z,0.10
2022-11-04T03:00:29.536Z,0.10
2022-11-04T03:03:06.078Z,0.10
2022-11-04T03:05:37.251Z,0.10
2022-11-04T03:08:11.544Z,0.10
2022-11-04T03:10:45.555Z,0.10
2022-11-04T03:13:16.445Z,0.10
2022-11-04T03:15:50.386Z,0.10
2022-11-04T03:18:23.856Z,0.32
2022-11-04T03:20:51.592Z,0.20
2022-11-04T03:23:18.770Z,0.10
2022-11-04T03:25:47.083Z,0.10
2022-11-04T03:28:25.414Z,0.10
2022-11-04T03:30:56.572Z,0.10
2022-11-04T03:33:32.972Z,0.30
2022-11-04T03:35:59.915Z,0.30
2022-11-04T03:38:26.441Z,0.20
2022-11-04T03:40:52.988Z,0.10
2022-11-04T03:43:26.020Z,0.20
2022-11-04T03:45:53.820Z,0.10
2022-11-04T03:48:20.738Z,0.10
2022-11-04T03:50:48.950Z,0.10
2022-11-04T03:53:22.057Z,0.10
2022-11-04T03:56:25.272Z,0.10
2022-11-04T03:58:54.794Z,0.20
2022-11-04T04:01:51.635Z,0.20
2022-11-04T04:04:29.885Z,0.20
2022-11-04T04:07:05.174Z,0.30
2022-11-04T04:09:39.759Z,0.32
2022-11-04T04:12:26.757Z,0.20
2022-11-04T04:14:59.912Z,0.30
2022-11-04T04:17:34.669Z,0.50
2022-11-04T04:20:05.908Z,0.30
2022-11-04T04:22:38.210Z,0.47
2022-11-04T04:25:25.922Z,0.40
2022-11-04T04:27:55.785Z,0.40
2022-11-04T04:30:22.740Z,0.45
2022-11-04T04:33:01.097Z,0.40
2022-11-04T04:35:45.792Z,0.47
2022-11-04T04:38:40.478Z,0.60
2022-11-04T04:41:31.476Z,1.33
2022-11-04T04:44:17.286Z,1.10
2022-11-04T04:46:47.424Z,1.90
2022-11-04T04:49:13.887Z,2.05
2022-11-04T04:51:46.011Z,2.50
2022-11-04T04:54:13.069Z,2.05
2022-11-04T04:56:39.778Z,2.72
2022-11-04T04:59:06.322Z,2.85
2022-11-04T05:01:33.067Z,3.00
2022-11-04T05:03:59.766Z,2.57
2022-11-04T05:06:26.711Z,3.08
2022-11-04T05:08:53.190Z,2.80
2022-11-04T05:11:24.355Z,3.45
2022-11-04T05:13:52.765Z,3.28
2022-11-04T05:16:19.235Z,3.30
2022-11-04T05:18:45.685Z,3.40
2022-11-04T05:21:15.318Z,2.85
2022-11-04T05:23:41.762Z,3.50
2022-11-04T05:26:08.315Z,4.60
2022-11-04T05:28:34.988Z,3.20
2022-11-04T05:31:04.356Z,4.35
2022-11-04T05:33:30.839Z,3.38
2022-11-04T05:36:07.027Z,3.95
2022-11-04T05:38:33.781Z,3.33
2022-11-04T05:41:00.353Z,4.07
2022-11-04T05:43:27.192Z,4.10
2022-11-04T05:45:53.661Z,4.05
2022-11-04T05:48:20.124Z,4.15
2022-11-04T05:50:46.844Z,3.90
2022-11-04T05:53:13.402Z,3.83
2022-11-04T05:55:39.927Z,4.07
2022-11-04T05:58:06.849Z,3.97
2022-11-04T06:00:33.626Z,4.07
2022-11-04T06:03:00.271Z,3.90
2022-11-04T06:05:28.108Z,5.07
2022-11-04T06:07:55.021Z,4.70
2022-11-04T06:10:21.680Z,4.75
2022-11-04T06:12:48.196Z,4.45
2022-11-04T06:15:14.752Z,5.65
2022-11-04T06:17:41.269Z,4.73
2022-11-04T06:20:08.264Z,5.68
2022-11-04T06:22:34.748Z,4.35
2022-11-04T06:25:01.297Z,4.10
2022-11-04T06:27:27.756Z,4.22
2022-11-04T06:29:54.283Z,7.83
2022-11-04T06:32:20.832Z,9.23
2022-11-04T06:34:47.362Z,6.32
2022-11-04T06:37:13.928Z,8.50
2022-11-04T06:39:40.530Z,10.32
2022-11-04T06:42:07.085Z,8.30
2022-11-04T06:44:35.016Z,7.28
2022-11-04T06:47:01.869Z,5.43
2022-11-04T06:49:28.534Z,4.95
2022-11-04T06:51:55.058Z,5.25
2022-11-04T06:54:21.548Z,4.80
2022-11-04T06:56:48.950Z,4.57
2022-11-04T06:59:17.791Z,4.88
2022-11-04T07:01:47.654Z,4.00
2022-11-04T07:04:14.301Z,3.92
2022-11-04T07:06:44.347Z,4.47
2022-11-04T07:09:13.745Z,4.47
2022-11-04T07:11:40.989Z,4.68
2022-11-04T07:14:08.888Z,4.60
2022-11-04T07:16:35.799Z,5.35
2022-11-04T07:19:02.907Z,5.40
2022-11-04T07:21:30.459Z,5.82
2022-11-04T07:24:03.411Z,5.50
2022-11-04T07:26:29.964Z,5.10
2022-11-04T07:28:56.491Z,4.13
2022-11-04T07:31:23.530Z,3.33
2022-11-04T07:33:51.338Z,4.32
2022-11-04T07:36:18.947Z,3.97
2022-11-04T07:38:45.897Z,3.45
2022-11-04T07:41:13.306Z,4.03
2022-11-04T07:43:40.099Z,4.47
2022-11-04T07:46:09.900Z,3.25
2022-11-04T07:48:37.141Z,3.63
2022-11-04T07:51:05.483Z,3.15
2022-11-04T07:53:32.666Z,3.75
2022-11-04T07:56:03.278Z,3.30
2022-11-04T07:58:29.862Z,3.50
2022-11-04T08:01:01.163Z,3.50
2022-11-04T08:03:27.766Z,3.22
2022-11-04T08:05:56.447Z,3.25
2022-11-04T08:08:23.887Z,3.23
2022-11-04T08:10:53.936Z,3.08
2022-11-04T08:13:20.506Z,3.45
2022-11-04T08:15:46.969Z,4.30
2022-11-04T08:18:13.424Z,4.25
2022-11-04T08:20:44.077Z,4.00
2022-11-04T08:23:12.403Z,3.40
2022-11-04T08:25:39.027Z,2.90
2022-11-04T08:28:06.731Z,2.80
2022-11-04T08:30:33.678Z,2.75
2022-11-04T08:33:00.194Z,2.80
2022-11-04T08:35:26.712Z,2.67
2022-11-04T08:37:53.242Z,3.00
2022-11-04T08:40:19.695Z,2.33
2022-11-04T08:42:46.191Z,2.88
2022-11-04T08:45:12.689Z,2.37
2022-11-04T08:47:39.808Z,2.50
2022-11-04T08:50:06.720Z,3.13
2022-11-04T08:52:33.400Z,2.80
2022-11-04T08:54:59.853Z,2.63
2022-11-04T08:57:26.496Z,3.00
2022-11-04T08:59:53.010Z,2.92
2022-11-04T09:02:19.544Z,3.20
2022-11-04T09:04:47.053Z,3.08
2022-11-04T09:07:13.583Z,3.22
2022-11-04T09:09:41.321Z,2.80
2022-11-04T09:12:10.775Z,2.85
2022-11-04T09:14:37.351Z,2.92
2022-11-04T09:17:03.990Z,2.65
2022-11-04T09:19:30.583Z,3.03
2022-11-04T09:21:57.108Z,3.23
2022-11-04T09:24:23.613Z,3.78
2022-11-04T09:26:50.075Z,3.13
2022-11-04T09:29:16.594Z,3.35
2022-11-04T09:31:43.316Z,3.25
2022-11-04T09:34:09.780Z,3.73
2022-11-04T09:36:36.421Z,3.67
2022-11-04T09:39:02.941Z,3.97
2022-11-04T09:41:38.572Z,4.60
2022-11-04T09:44:37.065Z,4.72
2022-11-04T09:47:21.553Z,5.07
2022-11-04T09:49:52.676Z,5.10
2022-11-04T09:52:26.400Z,5.10
2022-11-04T09:55:00.154Z,4.93
2022-11-04T09:57:26.742Z,5.10
2022-11-04T09:59:53.645Z,5.60
2022-11-04T10:02:36.363Z,4.90
2022-11-04T10:05:06.979Z,4.68
2022-11-04T10:08:03.305Z,4.65
2022-11-04T10:10:55.017Z,4.50
2022-11-04T10:13:41.427Z,4.63
2022-11-04T10:16:27.673Z,4.70
2022-11-04T10:19:21.406Z,4.93
2022-11-04T10:22:13.029Z,5.40
2022-11-04T10:24:46.574Z,5.28
2022-11-04T10:27:17.655Z,4.50
2022-11-04T10:29:47.245Z,5.13
2022-11-04T10:32:22.444Z,5.38
2022-11-04T10:35:02.181Z,5.60
2022-11-04T10:37:28.982Z,6.35
2022-11-04T10:40:12.934Z,6.50
2022-11-04T10:42:39.526Z,6.57
2022-11-04T10:45:12.316Z,6.72
2022-11-04T10:47:56.464Z,7.90
2022-11-04T10:50:34.805Z,7.20
2022-11-04T10:53:12.344Z,6.63
2022-11-04T10:55:46.969Z,6.90
2022-11-04T10:58:23.110Z,7.03
2022-11-04T11:00:50.625Z,7.63
2022-11-04T11:03:27.014Z,7.13
2022-11-04T11:05:55.171Z,6.47
2022-11-04T11:08:34.103Z,7.47
2022-11-04T11:11:00.677Z,6.72
2022-11-04T11:13:34.151Z,6.90
2022-11-04T11:16:09.897Z,6.03
2022-11-04T11:18:38.389Z,6.43
2022-11-04T11:21:05.094Z,6.80
2022-11-04T11:23:49.229Z,6.38
2022-11-04T11:26:19.915Z,5.80
2022-11-04T11:29:11.451Z,5.45
2022-11-04T11:31:40.423Z,5.10
2022-11-04T11:34:18.965Z,4.90
2022-11-04T11:36:48.154Z,4.97
2022-11-04T11:39:22.034Z,5.50
2022-11-04T11:42:06.169Z,5.70
2022-11-04T11:44:38.825Z,4.97
2022-11-04T11:47:09.350Z,4.25
2022-11-04T11:49:38.182Z,4.63
2022-11-04T11:52:30.363Z,4.30
2022-11-04T11:55:05.561Z,3.88
2022-11-04T11:57:44.817Z,3.40
2022-11-04T12:03:16.045Z,4.00
2022-11-04T12:11:46.212Z,2.53
2022-11-04T12:14:21.309Z,2.42
2022-11-04T12:17:01.241Z,2.00
2022-11-04T12:19:38.523Z,2.65
2022-11-04T12:22:27.191Z,2.65
2022-11-04T12:25:02.860Z,2.27
2022-11-04T12:27:47.557Z,2.70
2022-11-04T12:30:22.473Z,2.55
2022-11-04T12:33:10.752Z,2.30
2022-11-04T12:35:39.826Z,2.45
2022-11-04T12:38:29.023Z,1.93
2022-11-04T12:44:14.370Z,2.42
2022-11-04T12:47:20.034Z,2.28
2022-11-04T12:49:53.302Z,2.00
2022-11-04T12:52:30.678Z,2.30
2022-11-04T12:55:06.234Z,1.98
2022-11-04T12:57:50.139Z,1.40
2022-11-04T13:00:39.051Z,1.42
2022-11-04T13:03:15.001Z,1.38
2022-11-04T13:06:06.378Z,1.73
2022-11-04T13:09:13.526Z,1.63
2022-11-04T13:11:49.862Z,1.30
2022-11-04T13:14:26.294Z,1.33
2022-11-04T13:16:53.977Z,1.30
2022-11-04T13:19:34.703Z,1.30
2022-11-04T13:22:06.486Z,1.40
2022-11-04T13:24:38.952Z,1.20
2022-11-04T13:27:19.030Z,1.23
2022-11-04T13:29:47.379Z,1.30
2022-11-04T13:32:27.814Z,0.90
2022-11-04T13:34:57.477Z,1.10
2022-11-04T13:37:31.227Z,1.05
2022-11-04T13:40:07.167Z,0.47
2022-11-04T13:42:52.974Z,0.20
2022-11-04T13:45:20.430Z,0.13
2022-11-04T13:48:10.499Z,0.20
2022-11-04T13:50:39.780Z,0.20
2022-11-04T13:53:10.127Z,0.20
2022-11-04T13:55:49.230Z,0.10
2022-11-04T13:58:25.864Z,0.20
2022-11-04T14:01:09.860Z,0.00
2022-11-04T14:03:36.263Z,0.10
2022-11-04T14:06:06.673Z,0.20
2022-11-04T14:08:39.017Z,0.10
2022-11-04T14:14:02.669Z,0.00
2022-11-04T14:26:09.866Z,0.10
2022-11-04T14:28:37.538Z,0.10
2022-11-04T14:31:08.959Z,0.10
2022-11-04T14:33:53.754Z,0.32
2022-11-04T14:36:20.379Z,0.10
2022-11-04T14:39:14.868Z,0.20
2022-11-04T14:41:41.338Z,0.10
2022-11-04T14:44:15.674Z,0.20
2022-11-04T14:46:45.451Z,0.10
2022-11-04T14:49:35.795Z,0.15
2022-11-04T14:52:02.247Z,0.13
2022-11-04T14:54:36.519Z,0.20
2022-11-04T14:57:15.633Z,0.10
2022-11-04T14:59:42.607Z,0.20
2022-11-04T15:02:18.524Z,0.10
2022-11-04T15:04:52.220Z,0.23
2022-11-04T15:07:26.474Z,0.10
2022-11-04T15:09:53.102Z,0.10
2022-11-04T15:12:38.669Z,0.10
2022-11-04T15:18:21.813Z,0.10
2022-11-04T15:20:54.399Z,0.15
2022-11-04T15:23:30.841Z,0.47
2022-11-04T15:25:58.838Z,0.40
2022-11-04T15:29:07.406Z,0.30
2022-11-04T15:32:00.653Z,0.30
2022-11-04T15:35:04.381Z,0.20
2022-11-04T15:37:55.975Z,0.10
2022-11-04T15:46:29.692Z,0.37
2022-11-04T15:49:07.029Z,0.25
2022-11-04T15:52:04.750Z,0.20
2022-11-04T16:07:30.827Z,0.20
2022-11-04T16:09:57.462Z,0.10
2022-11-04T16:12:26.964Z,0.30
2022-11-04T16:14:56.407Z,0.10
2022-11-04T16:17:26.925Z,0.20
2022-11-04T16:19:57.107Z,0.20
2022-11-04T16:22:29.447Z,0.10
2022-11-04T16:24:57.811Z,0.20
2022-11-04T16:27:29.514Z,0.50
2022-11-04T16:30:09.124Z,0.43
2022-11-04T16:32:45.147Z,2.42
2022-11-04T16:35:24.952Z,1.90
2022-11-04T16:37:56.894Z,0.80
2022-11-04T16:40:27.447Z,0.70
2022-11-04T16:42:54.584Z,0.35
2022-11-04T16:48:24.755Z,0.20
2022-11-04T16:50:53.532Z,0.30
2022-11-04T16:53:50.320Z,0.20
2022-11-04T16:56:09.410Z,0.25
2022-11-04T16:58:36.286Z,0.40
2022-11-04T17:01:05.700Z,0.60
2022-11-04T17:03:32.963Z,0.20
2022-11-04T17:05:59.710Z,0.40
2022-11-04T17:08:27.104Z,0.38
2022-11-04T17:10:56.152Z,0.50
2022-11-04T17:13:22.754Z,0.52
2022-11-04T17:15:50.828Z,0.20
2022-11-04T17:18:18.586Z,0.40
2022-11-04T17:20:55.258Z,0.20
2022-11-04T17:23:22.647Z,0.38
2022-11-04T17:25:51.283Z,0.30
2022-11-04T17:28:20.217Z,0.40
2022-11-04T17:30:49.720Z,0.30
2022-11-04T17:33:19.793Z,0.38
2022-11-04T17:35:51.590Z,0.32
2022-11-04T17:38:22.195Z,0.40
2022-11-04T17:41:07.361Z,0.30
2022-11-04T17:43:53.961Z,0.20
2022-11-04T17:46:48.270Z,0.30
2022-11-04T17:49:18.263Z,0.30
2022-11-04T17:51:52.922Z,0.20
2022-11-04T17:55:11.097Z,0.25
2022-11-04T17:57:08.509Z,0.50
2022-11-04T17:59:36.916Z,0.73
2022-11-04T18:02:07.435Z,0.60
2022-11-04T18:04:34.461Z,0.60
2022-11-04T18:07:03.060Z,0.60
2022-11-04T18:09:33.781Z,0.53
2022-11-04T18:12:18.938Z,0.77
2022-11-04T18:14:47.905Z,0.70
2022-11-04T18:17:15.768Z,0.50
2022-11-04T18:19:44.683Z,0.70
2022-11-04T18:22:11.351Z,1.20
2022-11-04T18:24:40.907Z,0.65
2022-11-04T18:27:07.865Z,0.80
2022-11-04T18:29:34.563Z,0.50
2022-11-04T18:32:01.418Z,0.57
2022-11-04T18:34:28.703Z,1.00
2022-11-04T18:36:56.957Z,0.73
2022-11-04T18:39:24.120Z,0.50
2022-11-04T18:41:50.945Z,0.50
2022-11-04T18:44:20.410Z,0.60
2022-11-04T18:46:48.404Z,0.80
2022-11-04T18:49:16.040Z,0.35
2022-11-04T18:52:09.060Z,0.47
2022-11-04T18:54:56.381Z,0.70
2022-11-04T18:57:22.266Z,1.13
2022-11-04T18:59:49.049Z,0.63
2022-11-04T19:02:30.855Z,0.73
2022-11-04T19:04:59.089Z,1.23
2022-11-04T19:07:25.734Z,1.23
2022-11-04T19:09:54.618Z,0.95
2022-11-04T19:13:00.094Z,1.23
2022-11-04T19:15:29.085Z,1.50
2022-11-04T19:17:57.044Z,1.70
2022-11-04T19:20:46.343Z,1.80
2022-11-04T19:23:14.231Z,2.00
2022-11-04T19:25:43.681Z,1.57
2022-11-04T19:28:34.540Z,1.58
2022-11-04T19:31:01.419Z,1.50
2022-11-04T19:33:29.755Z,1.85
2022-11-04T19:36:00.395Z,2.53
2022-11-04T19:38:30.929Z,2.80
2022-11-04T19:41:28.697Z,2.40
2022-11-04T19:43:53.483Z,2.08
2022-11-04T19:46:20.147Z,2.00
2022-11-04T19:48:46.728Z,1.50
2022-11-04T19:51:15.081Z,2.00
2022-11-04T19:53:46.401Z,2.10
2022-11-04T19:56:17.522Z,2.03
2022-11-04T19:58:46.535Z,1.70
2022-11-04T20:01:17.689Z,1.45
2022-11-04T20:03:48.265Z,1.33
2022-11-04T20:06:16.374Z,1.33
2022-11-04T20:08:50.867Z,1.30
2022-11-04T20:11:20.795Z,1.52
2022-11-04T20:13:48.565Z,1.27
2022-11-04T20:16:27.385Z,1.20
2022-11-04T20:18:56.959Z,1.25
2022-11-04T20:21:26.234Z,1.10
2022-11-04T20:23:58.772Z,0.93
2022-11-04T20:26:26.344Z,1.40
2022-11-04T20:28:56.396Z,1.17
2022-11-04T20:31:26.573Z,1.10
2022-11-04T20:33:57.459Z,1.20
2022-11-04T20:36:26.662Z,1.42
2022-11-04T20:39:01.788Z,1.40
2022-11-04T20:41:28.593Z,1.63
2022-11-04T20:43:58.726Z,1.60
2022-11-04T20:46:31.646Z,1.40
2022-11-04T20:49:03.384Z,1.00
2022-11-04T20:51:33.747Z,1.38
2022-11-04T20:57:13.032Z,1.27
2022-11-04T20:59:39.673Z,1.08
2022-11-04T21:02:06.395Z,1.30
2022-11-04T21:04:36.330Z,1.48
2022-11-04T21:07:04.667Z,1.70
2022-11-04T21:09:31.603Z,1.45
2022-11-04T21:11:58.301Z,1.48
2022-11-04T21:14:28.520Z,1.50
2022-11-04T21:16:55.093Z,1.15
2022-11-04T21:19:22.037Z,1.60
2022-11-04T21:21:49.833Z,1.83
2022-11-04T21:24:16.913Z,1.80
2022-11-04T21:26:44.461Z,1.70
2022-11-04T21:29:14.139Z,1.58
2022-11-04T21:31:41.664Z,1.60
2022-11-04T21:34:08.442Z,1.65
2022-11-04T21:36:35.242Z,1.60
2022-11-04T21:39:02.115Z,2.00
2022-11-04T21:41:33.308Z,2.33
2022-11-04T21:44:02.605Z,2.37
2022-11-04T21:46:32.517Z,2.00
2022-11-04T21:49:00.498Z,1.77
2022-11-04T21:51:30.741Z,1.88
2022-11-04T21:53:58.838Z,1.45
2022-11-04T21:56:28.224Z,1.67
2022-11-04T21:58:55.962Z,1.83
2022-11-04T22:01:25.828Z,2.22
2022-11-04T22:03:55.242Z,2.42
2022-11-04T22:06:27.817Z,2.17
2022-11-04T22:08:59.211Z,1.93
2022-11-04T22:11:28.535Z,1.98
2022-11-04T22:13:58.106Z,1.83
2022-11-04T22:16:29.927Z,1.90
2022-11-04T22:18:58.765Z,1.98
2022-11-04T22:21:26.725Z,2.10
2022-11-04T22:23:54.053Z,1.88
2022-11-04T22:26:24.342Z,2.33
2022-11-04T22:28:51.862Z,2.15
2022-11-04T22:31:19.688Z,2.03
2022-11-04T22:33:46.344Z,2.40
2022-11-04T22:36:14.408Z,2.05
2022-11-04T22:38:42.561Z,1.98
2022-11-04T22:41:12.499Z,2.28
2022-11-04T22:43:39.515Z,2.00
2022-11-04T22:46:15.971Z,1.97
2022-11-04T22:48:42.988Z,2.13
2022-11-04T22:51:10.165Z,1.90
2022-11-04T22:53:40.107Z,1.92
2022-11-04T22:56:08.504Z,1.50
2022-11-04T22:58:36.798Z,1.50
2022-11-04T23:01:08.176Z,1.45
2022-11-04T23:03:34.920Z,1.50
2022-11-04T23:06:03.878Z,1.52
2022-11-04T23:08:32.189Z,1.42
2022-11-04T23:11:20.711Z,1.10
2022-11-04T23:14:17.114Z,1.33
2022-11-04T23:17:06.957Z,1.13
2022-11-04T23:19:33.516Z,1.35
2022-11-04T23:22:19.051Z,0.90
2022-11-04T23:25:03.869Z,0.80
2022-11-04T23:27:49.020Z,1.00
2022-11-04T23:30:22.890Z,0.88
2022-11-04T23:32:52.161Z,1.05
2022-11-04T23:35:38.837Z,1.10
2022-11-04T23:38:07.706Z,1.20
2022-11-04T23:40:34.291Z,1.10
2022-11-04T23:43:00.735Z,0.82
2022-11-04T23:45:45.869Z,0.68
2022-11-04T23:48:32.005Z,0.60
2022-11-04T23:51:19.549Z,0.70
2022-11-04T23:54:05.870Z,0.90
2022-11-04T23:56:50.875Z,1.00
2022-11-04T23:59:39.225Z,1.00
